Time;durP1;ratioP1;P1;durP2;ratioP2;P2;SDS_P1;SDS_P2;PMS_P1;PMS_P2;Temp;Humidity;BMP_temperature;BMP_pressure;BME280_temperature;BME280_humidity;BME280_pressure;Samples;Min_cycle;Max_cycle;Signal;HPM_P1;HPM_P2
2023/03/09 00:00:50;;;;;;;3.22;0.55;;;24.80;99.90;;;;;;5071125;28;20203;-79
2023/03/09 00:03:21;;;;;;;2.75;0.60;;;24.80;99.90;;;;;;5068403;28;20193;-79
2023/03/09 00:05:57;;;;;;;2.35;0.40;;;24.80;99.90;;;;;;5072704;28;20207;-79
2023/03/09 00:08:30;;;;;;;3.13;0.70;;;24.90;99.90;;;;;;5070638;28;20200;-78
2023/03/09 00:11:05;;;;;;;4.60;0.68;;;24.90;99.90;;;;;;5073229;28;20200;-80
2023/03/09 00:13:39;;;;;;;3.03;0.60;;;25.00;99.90;;;;;;5068409;28;20200;-79
2023/03/09 00:16:15;;;;;;;2.38;0.60;;;25.00;99.90;;;;;;5080770;28;20253;-78
2023/03/09 00:18:47;;;;;;;2.20;0.90;;;25.00;99.90;;;;;;5067368;28;20664;-79
2023/03/09 00:21:34;;;;;;;1.27;0.80;;;25.00;99.90;;;;;;5070626;28;20200;-80
2023/03/09 00:24:06;;;;;;;2.65;1.00;;;24.70;99.90;;;;;;5064912;28;20708;-79
2023/03/09 00:26:42;;;;;;;4.28;1.95;;;24.70;99.90;;;;;;5066068;28;20709;-79
2023/03/09 00:29:16;;;;;;;2.15;0.80;;;24.80;99.90;;;;;;5071627;28;20240;-80
2023/03/09 00:31:49;;;;;;;4.55;1.25;;;24.80;99.90;;;;;;5071943;28;20656;-81
2023/03/09 00:34:20;;;;;;;2.65;0.70;;;24.80;99.90;;;;;;5076684;28;20193;-80
2023/03/09 00:36:52;;;;;;;0.73;0.60;;;24.80;99.90;;;;;;5070136;28;20211;-80
2023/03/09 00:39:24;;;;;;;2.83;0.90;;;24.80;99.90;;;;;;5074303;28;20201;-79
2023/03/09 00:42:00;;;;;;;2.50;0.60;;;24.90;99.90;;;;;;5073015;28;20193;-79
2023/03/09 00:44:31;;;;;;;5.05;0.90;;;25.00;99.90;;;;;;5061085;28;20211;-80
2023/03/09 00:47:02;;;;;;;2.33;0.70;;;25.10;99.90;;;;;;5074088;28;20664;-78
2023/03/09 00:49:33;;;;;;;2.70;0.70;;;25.00;99.90;;;;;;5072366;28;20680;-79
2023/03/09 00:52:04;;;;;;;4.13;0.82;;;25.00;99.90;;;;;;5084968;28;20219;-78
2023/03/09 00:54:35;;;;;;;3.17;0.80;;;25.10;99.90;;;;;;5079189;28;20569;-79
2023/03/09 00:57:10;;;;;;;1.77;0.65;;;25.20;99.90;;;;;;5074395;28;20204;-78
2023/03/09 00:59:41;;;;;;;1.98;0.70;;;25.40;99.90;;;;;;5069113;28;20220;-78
2023/03/09 01:02:12;;;;;;;1.27;0.70;;;25.50;99.90;;;;;;5071311;28;20228;-84
2023/03/09 01:04:46;;;;;;;2.30;0.60;;;25.70;99.90;;;;;;5066486;28;20239;-78
2023/03/09 01:07:17;;;;;;;5.15;0.85;;;25.90;99.90;;;;;;5074008;28;20189;-79
2023/03/09 01:09:48;;;;;;;1.75;0.60;;;25.90;99.90;;;;;;5085119;28;20704;-81
2023/03/09 01:12:21;;;;;;;1.48;0.57;;;26.00;99.90;;;;;;5072887;28;20586;-80
2023/03/09 01:14:55;;;;;;;2.53;0.70;;;26.10;99.90;;;;;;5072353;28;20189;-79
2023/03/09 01:17:26;;;;;;;1.42;0.40;;;26.30;99.90;;;;;;5071065;28;20659;-80
2023/03/09 01:19:57;;;;;;;2.95;0.73;;;26.30;99.90;;;;;;5072293;28;20197;-79
2023/03/09 01:22:28;;;;;;;4.88;0.50;;;26.30;99.90;;;;;;5081405;28;20193;-80
2023/03/09 01:24:59;;;;;;;2.40;0.80;;;26.40;99.90;;;;;;5084195;28;20203;-80
2023/03/09 01:27:32;;;;;;;0.68;0.40;;;26.40;99.90;;;;;;5078103;28;20204;-81
2023/03/09 01:30:03;;;;;;;1.65;0.70;;;26.50;99.90;;;;;;5077176;28;20702;-80
2023/03/09 01:32:35;;;;;;;2.55;1.00;;;26.30;99.90;;;;;;5069253;28;20197;-81
2023/03/09 01:35:06;;;;;;;1.70;0.70;;;26.30;99.90;;;;;;5075906;28;20202;-79
2023/03/09 01:37:37;;;;;;;1.65;0.80;;;26.40;99.90;;;;;;5076148;28;20560;-80
2023/03/09 01:40:09;;;;;;;1.83;0.70;;;26.60;99.90;;;;;;5089628;28;20196;-78
2023/03/09 01:42:42;;;;;;;0.80;0.50;;;26.70;99.90;;;;;;5081151;28;20270;-80
2023/03/09 01:45:48;;;;;;;1.83;0.50;;;26.60;99.90;;;;;;5068241;28;20204;-78
2023/03/09 01:48:20;;;;;;;1.15;0.57;;;26.50;99.90;;;;;;5075070;28;20208;-80
2023/03/09 01:50:52;;;;;;;1.50;0.60;;;26.60;99.90;;;;;;5067385;28;20216;-79
2023/03/09 01:53:23;;;;;;;3.17;0.60;;;26.80;99.90;;;;;;5073653;28;20193;-81
2023/03/09 01:55:57;;;;;;;2.28;0.43;;;26.90;99.90;;;;;;5068854;28;20651;-81
2023/03/09 01:58:32;;;;;;;1.83;0.60;;;27.10;99.90;;;;;;5070019;28;20228;-82
2023/03/09 02:01:03;;;;;;;1.00;0.40;;;27.30;99.90;;;;;;5071290;28;20212;-79
2023/03/09 02:03:39;;;;;;;2.95;0.68;;;27.40;99.90;;;;;;5052500;28;20652;-80
2023/03/09 02:06:15;;;;;;;1.90;0.60;;;27.40;99.90;;;;;;5072941;28;20305;-80
2023/03/09 02:08:58;;;;;;;1.92;0.60;;;27.50;99.90;;;;;;5090001;28;20554;-80
2023/03/09 02:11:29;;;;;;;2.70;0.50;;;27.50;99.90;;;;;;5081251;28;20200;-80
2023/03/09 02:14:03;;;;;;;1.08;0.47;;;27.50;99.90;;;;;;5079251;28;20200;-80
2023/03/09 02:16:34;;;;;;;2.50;0.50;;;27.60;99.90;;;;;;5081196;28;20255;-79
2023/03/09 02:19:06;;;;;;;1.35;0.40;;;27.80;99.90;;;;;;5071726;28;20660;-79
2023/03/09 02:21:45;;;;;;;1.75;0.57;;;27.80;99.90;;;;;;5075650;28;20197;-80
2023/03/09 02:24:25;;;;;;;1.75;0.40;;;27.80;99.90;;;;;;5075516;28;20590;-79
2023/03/09 02:27:00;;;;;;;1.90;0.55;;;27.80;99.90;;;;;;5068415;28;20205;-79
2023/03/09 02:29:35;;;;;;;2.30;0.95;;;27.60;99.90;;;;;;5073515;28;20593;-78
2023/03/09 02:32:08;;;;;;;0.75;0.50;;;27.30;99.90;;;;;;5075245;28;20189;-79
2023/03/09 02:34:39;;;;;;;3.55;0.70;;;27.40;99.90;;;;;;5075294;28;20185;-78
2023/03/09 02:37:28;;;;;;;2.47;0.50;;;27.40;99.90;;;;;;5074946;28;20653;-79
2023/03/09 02:40:04;;;;;;;1.83;0.30;;;27.50;99.90;;;;;;5055263;28;20236;-79
2023/03/09 02:42:35;;;;;;;1.42;0.52;;;27.60;99.90;;;;;;5061448;28;20185;-80
2023/03/09 02:45:09;;;;;;;1.80;0.43;;;27.60;99.90;;;;;;5075073;28;20189;-79
2023/03/09 02:47:40;;;;;;;2.60;0.73;;;27.50;99.90;;;;;;5061869;28;20197;-80
2023/03/09 02:50:15;;;;;;;1.70;0.60;;;27.50;99.90;;;;;;5055151;28;20218;-80
2023/03/09 02:52:46;;;;;;;1.73;0.50;;;27.60;99.90;;;;;;5054824;28;20676;-81
2023/03/09 02:55:18;;;;;;;2.25;0.70;;;27.60;99.90;;;;;;5069748;28;20193;-79
2023/03/09 02:57:49;;;;;;;2.30;1.25;;;27.70;99.90;;;;;;5074797;28;20683;-80
2023/03/09 03:00:24;;;;;;;3.28;0.70;;;27.70;99.90;;;;;;5074977;28;20196;-79
2023/03/09 03:02:55;;;;;;;2.95;0.70;;;27.60;99.90;;;;;;5074446;28;20647;-79
2023/03/09 03:05:26;;;;;;;9.23;2.85;;;27.70;99.90;;;;;;5061980;28;20189;-80
2023/03/09 03:07:58;;;;;;;3.50;0.63;;;27.70;99.90;;;;;;5072576;28;20193;-80
2023/03/09 03:10:29;;;;;;;1.92;0.40;;;27.70;99.90;;;;;;5072909;28;20213;-79
2023/03/09 03:13:02;;;;;;;2.17;0.50;;;27.60;99.90;;;;;;5074714;28;20196;-80
2023/03/09 03:15:37;;;;;;;0.80;0.40;;;27.50;99.90;;;;;;5074697;28;20548;-80
2023/03/09 03:18:11;;;;;;;2.10;0.45;;;27.40;99.90;;;;;;5054260;28;20196;-80
2023/03/09 03:20:42;;;;;;;2.20;0.45;;;27.40;99.90;;;;;;5057531;28;20200;-80
2023/03/09 03:23:13;;;;;;;1.20;0.40;;;27.40;99.90;;;;;;5069698;28;20185;-79
2023/03/09 03:25:45;;;;;;;2.13;0.60;;;27.60;99.90;;;;;;5074387;28;20193;-79
2023/03/09 03:28:16;;;;;;;1.38;0.65;;;27.60;99.90;;;;;;5073738;28;20199;-79
2023/03/09 03:30:53;;;;;;;1.48;0.40;;;27.40;99.90;;;;;;5073739;28;20240;-79
2023/03/09 03:33:24;;;;;;;1.08;0.50;;;27.50;99.90;;;;;;5074306;28;20192;-79
2023/03/09 03:35:57;;;;;;;1.75;0.40;;;27.50;99.90;;;;;;5073050;28;20200;-79
2023/03/09 03:38:28;;;;;;;2.13;0.60;;;27.70;99.90;;;;;;5074572;28;20220;-79
2023/03/09 03:40:59;;;;;;;3.50;0.50;;;27.70;99.90;;;;;;5072453;28;20209;-80
2023/03/09 03:43:30;;;;;;;2.67;0.50;;;27.70;99.90;;;;;;5074038;28;20189;-78
2023/03/09 03:46:04;;;;;;;3.30;0.52;;;27.70;99.90;;;;;;5077257;28;20199;-80
2023/03/09 03:48:36;;;;;;;2.83;0.70;;;27.70;99.90;;;;;;5070512;28;20196;-78
2023/03/09 03:51:08;;;;;;;0.95;0.40;;;27.70;99.90;;;;;;5073648;28;20684;-78
2023/03/09 03:53:39;;;;;;;2.85;0.40;;;27.60;99.90;;;;;;5073885;28;20769;-77
2023/03/09 03:56:10;;;;;;;2.45;0.70;;;27.50;99.90;;;;;;5080826;28;20203;-79
2023/03/09 03:58:41;;;;;;;4.45;0.57;;;27.40;99.90;;;;;;5070367;28;20224;-77
2023/03/09 04:01:14;;;;;;;2.25;0.60;;;27.30;99.90;;;;;;5062420;28;20194;-77
2023/03/09 04:03:45;;;;;;;2.20;0.68;;;27.20;99.90;;;;;;5060424;28;20193;-77
2023/03/09 04:06:16;;;;;;;1.95;0.60;;;26.90;99.90;;;;;;5082262;28;20192;-77
2023/03/09 04:08:47;;;;;;;3.63;0.70;;;26.80;99.90;;;;;;5071747;28;20205;-79
2023/03/09 04:11:18;;;;;;;4.03;0.82;;;26.80;99.90;;;;;;5071898;28;20228;-78
2023/03/09 04:13:52;;;;;;;2.20;0.57;;;26.70;99.90;;;;;;5069642;28;20200;-78
2023/03/09 04:16:26;;;;;;;1.58;0.50;;;26.60;99.90;;;;;;5073515;28;20636;-79
2023/03/09 04:18:57;;;;;;;1.83;0.70;;;26.40;99.90;;;;;;5068100;28;20532;-78
2023/03/09 04:21:28;;;;;;;3.95;0.77;;;26.40;99.90;;;;;;5072807;28;20197;-79
2023/03/09 04:24:01;;;;;;;2.15;0.50;;;26.30;99.90;;;;;;5077920;28;20203;-79
2023/03/09 04:26:33;;;;;;;1.45;0.40;;;26.10;99.90;;;;;;5071354;28;20667;-77
2023/03/09 04:29:04;;;;;;;1.30;0.52;;;26.00;99.90;;;;;;5069961;28;20332;-78
2023/03/09 04:31:37;;;;;;;0.60;0.40;;;25.90;99.90;;;;;;5055887;28;20237;-78
2023/03/09 04:34:08;;;;;;;3.38;0.80;;;26.00;99.90;;;;;;5065062;28;20287;-77
2023/03/09 04:36:39;;;;;;;2.13;0.70;;;26.00;99.90;;;;;;5067732;28;20640;-79
2023/03/09 04:39:10;;;;;;;3.70;0.63;;;26.00;99.90;;;;;;5073179;28;20200;-78
2023/03/09 04:41:41;;;;;;;2.45;0.80;;;25.80;99.90;;;;;;5067975;28;20213;-78
2023/03/09 04:44:12;;;;;;;2.47;0.50;;;25.60;99.90;;;;;;5076144;28;20201;-77
2023/03/09 04:46:45;;;;;;;2.05;0.70;;;25.60;99.90;;;;;;5071954;28;20204;-78
2023/03/09 04:49:18;;;;;;;1.98;0.50;;;25.60;99.90;;;;;;5070749;28;20205;-79
2023/03/09 04:51:49;;;;;;;3.58;0.65;;;25.50;99.90;;;;;;5086660;28;20216;-78
2023/03/09 04:54:21;;;;;;;2.72;0.73;;;25.50;99.90;;;;;;5066933;28;20200;-76
2023/03/09 04:56:52;;;;;;;4.13;0.50;;;25.40;99.90;;;;;;5069906;28;20278;-78
2023/03/09 04:59:23;;;;;;;2.20;0.70;;;25.30;99.90;;;;;;5070245;28;20238;-79
2023/03/09 05:01:56;;;;;;;1.95;0.60;;;25.40;99.90;;;;;;5061681;28;20208;-78
2023/03/09 05:04:27;;;;;;;2.85;0.68;;;25.50;99.90;;;;;;5081718;28;20195;-78
2023/03/09 05:06:59;;;;;;;2.13;0.60;;;25.50;99.90;;;;;;5053775;28;20200;-77
2023/03/09 05:09:30;;;;;;;3.63;0.60;;;25.40;99.90;;;;;;5057090;28;20192;-77
2023/03/09 05:12:01;;;;;;;4.15;0.90;;;25.40;99.90;;;;;;5067100;28;20223;-79
2023/03/09 05:14:33;;;;;;;3.85;0.50;;;25.30;99.90;;;;;;5071803;28;20193;-78
2023/03/09 05:17:06;;;;;;;2.22;0.77;;;25.20;99.90;;;;;;5069910;28;20193;-78
2023/03/09 05:19:37;;;;;;;1.55;0.47;;;25.30;99.90;;;;;;5072755;28;20200;-77
2023/03/09 05:22:09;;;;;;;3.63;0.60;;;25.30;99.90;;;;;;5068418;28;20207;-78
2023/03/09 05:24:42;;;;;;;3.33;0.57;;;25.30;99.90;;;;;;5058418;28;20536;-77
2023/03/09 05:27:14;;;;;;;4.47;0.75;;;25.20;99.90;;;;;;5079697;28;20668;-78
2023/03/09 05:29:45;;;;;;;2.53;0.60;;;25.20;99.90;;;;;;5060926;28;20232;-78
2023/03/09 05:32:18;;;;;;;2.70;0.70;;;25.10;99.90;;;;;;5071361;28;20229;-77
2023/03/09 05:34:50;;;;;;;2.35;0.63;;;25.10;99.90;;;;;;5062262;28;20206;-77
2023/03/09 05:37:25;;;;;;;6.93;0.77;;;25.10;99.90;;;;;;5059356;28;20642;-78
2023/03/09 05:39:58;;;;;;;2.15;0.63;;;25.00;99.90;;;;;;5073227;28;20215;-78
2023/03/09 05:42:29;;;;;;;2.80;0.70;;;24.90;99.90;;;;;;5092244;28;20551;-77
2023/03/09 05:45:02;;;;;;;4.32;0.80;;;24.90;99.90;;;;;;5092693;28;20203;-78
2023/03/09 05:47:38;;;;;;;2.70;0.55;;;24.70;99.90;;;;;;5074268;28;20590;-78
2023/03/09 05:50:10;;;;;;;2.30;0.60;;;24.80;99.90;;;;;;5076708;28;20283;-77
2023/03/09 05:52:42;;;;;;;3.33;0.70;;;24.80;99.90;;;;;;5059078;28;20224;-78
2023/03/09 05:55:14;;;;;;;3.13;0.60;;;24.70;99.90;;;;;;5056556;28;20196;-78
2023/03/09 05:57:47;;;;;;;4.97;0.70;;;24.70;99.90;;;;;;5064464;28;20586;-77
2023/03/09 06:00:18;;;;;;;4.70;0.60;;;24.60;99.90;;;;;;5074738;28;20188;-78
2023/03/09 06:02:51;;;;;;;4.00;0.52;;;24.60;99.90;;;;;;5073949;28;20200;-78
2023/03/09 06:05:22;;;;;;;3.45;0.65;;;24.60;99.90;;;;;;5068433;28;20640;-78
2023/03/09 06:07:53;;;;;;;1.48;0.60;;;24.50;99.90;;;;;;5084035;28;20204;-78
2023/03/09 06:10:25;;;;;;;1.52;0.60;;;24.50;99.90;;;;;;5070517;28;20551;-78
2023/03/09 06:12:56;;;;;;;2.67;0.60;;;24.50;99.90;;;;;;5096326;28;20188;-77
2023/03/09 06:15:27;;;;;;;3.33;1.00;;;24.50;99.90;;;;;;5077234;28;20207;-78
2023/03/09 06:18:00;;;;;;;1.65;0.60;;;24.50;99.90;;;;;;5087161;28;20214;-77
2023/03/09 06:20:31;;;;;;;2.00;0.85;;;24.50;99.90;;;;;;5083339;28;20193;-77
2023/03/09 06:23:02;;;;;;;4.53;0.60;;;24.50;99.90;;;;;;5085439;28;20207;-77
2023/03/09 06:25:33;;;;;;;6.28;0.70;;;24.50;99.90;;;;;;5077896;28;20198;-78
2023/03/09 06:28:04;;;;;;;3.88;0.60;;;24.50;99.90;;;;;;5055573;28;20197;-77
2023/03/09 06:30:35;;;;;;;2.20;0.50;;;24.40;99.90;;;;;;5055488;28;20696;-77
2023/03/09 06:33:09;;;;;;;2.38;0.70;;;24.40;99.90;;;;;;5060059;28;20237;-78
2023/03/09 06:35:40;;;;;;;3.88;0.52;;;24.30;99.90;;;;;;5075463;28;20200;-78
2023/03/09 06:38:11;;;;;;;2.10;0.63;;;24.30;99.90;;;;;;5059151;28;20198;-77
2023/03/09 06:40:43;;;;;;;3.42;0.50;;;24.20;99.90;;;;;;5057847;28;20219;-77
2023/03/09 06:43:14;;;;;;;1.58;0.43;;;24.10;99.90;;;;;;5079085;28;20195;-78
2023/03/09 06:45:49;;;;;;;5.15;0.60;;;24.10;99.90;;;;;;5092929;28;20207;-78
2023/03/09 06:48:23;;;;;;;2.35;0.70;;;24.00;99.90;;;;;;5084017;28;20192;-76
2023/03/09 06:50:54;;;;;;;2.53;0.55;;;24.00;99.90;;;;;;5066424;28;20218;-76
2023/03/09 06:53:25;;;;;;;1.88;0.60;;;24.00;99.90;;;;;;5088837;28;20210;-77
2023/03/09 06:56:00;;;;;;;3.80;0.70;;;24.00;99.90;;;;;;5064922;28;20200;-77
2023/03/09 06:58:33;;;;;;;1.80;0.43;;;24.00;99.90;;;;;;5088689;28;20239;-78
2023/03/09 07:01:10;;;;;;;3.75;0.68;;;23.90;99.90;;;;;;5080533;28;20254;-78
2023/03/09 07:03:44;;;;;;;4.47;0.63;;;23.90;99.90;;;;;;5081536;28;20192;-78
2023/03/09 07:06:16;;;;;;;2.72;0.65;;;23.90;99.90;;;;;;5060457;28;20556;-78
2023/03/09 07:08:47;;;;;;;2.58;0.52;;;23.90;99.90;;;;;;5068105;28;20254;-78
2023/03/09 07:11:18;;;;;;;1.95;0.60;;;23.90;99.90;;;;;;5072606;28;21002;-77
2023/03/09 07:13:49;;;;;;;1.92;0.60;;;23.70;99.90;;;;;;5067170;28;20193;-78
2023/03/09 07:16:22;;;;;;;1.52;0.50;;;23.60;99.90;;;;;;5073811;28;20652;-78
2023/03/09 07:18:55;;;;;;;4.10;1.30;;;23.60;99.90;;;;;;5069617;28;20197;-78
2023/03/09 07:21:26;;;;;;;3.05;0.60;;;23.60;99.90;;;;;;5071964;28;20204;-78
2023/03/09 07:23:57;;;;;;;3.30;0.70;;;23.60;99.90;;;;;;5064098;28;20688;-79
2023/03/09 07:26:31;;;;;;;2.20;0.50;;;23.50;99.90;;;;;;5071830;28;20189;-78
2023/03/09 07:29:04;;;;;;;3.10;0.60;;;23.50;99.90;;;;;;5070345;28;20198;-78
2023/03/09 07:31:36;;;;;;;2.95;0.80;;;23.50;99.90;;;;;;5072222;28;20217;-78
2023/03/09 07:34:11;;;;;;;2.17;0.73;;;23.40;99.90;;;;;;5069225;28;20201;-78
2023/03/09 07:36:42;;;;;;;2.13;0.70;;;23.40;99.90;;;;;;5077039;28;20545;-78
2023/03/09 07:39:13;;;;;;;2.75;0.70;;;23.40;99.90;;;;;;5073084;28;21806;-78
2023/03/09 07:41:45;;;;;;;3.08;0.70;;;23.30;99.90;;;;;;5068231;28;20203;-77
2023/03/09 07:44:16;;;;;;;3.90;0.70;;;23.20;99.90;;;;;;5076259;28;20202;-77
2023/03/09 07:46:47;;;;;;;3.83;0.90;;;23.20;99.90;;;;;;5064962;28;20193;-78
2023/03/09 07:49:20;;;;;;;3.17;0.98;;;23.20;99.90;;;;;;5071285;28;20220;-77
2023/03/09 07:51:51;;;;;;;2.42;0.65;;;23.20;99.90;;;;;;5069302;28;20216;-78
2023/03/09 07:54:24;;;;;;;1.83;0.70;;;23.10;99.90;;;;;;5071889;28;20305;-78
2023/03/09 07:56:57;;;;;;;3.78;0.93;;;23.00;99.90;;;;;;5071468;28;20201;-77
2023/03/09 07:59:29;;;;;;;1.98;0.70;;;23.00;99.90;;;;;;5071030;28;20196;-77
2023/03/09 08:02:00;;;;;;;2.97;0.60;;;23.00;99.90;;;;;;5068636;28;20200;-78
2023/03/09 08:04:35;;;;;;;1.60;0.70;;;22.90;99.90;;;;;;5070274;28;20199;-77
2023/03/09 08:07:07;;;;;;;3.38;0.57;;;22.90;99.90;;;;;;5072304;28;20207;-78
2023/03/09 08:09:40;;;;;;;4.30;0.70;;;22.80;99.90;;;;;;5069359;28;20204;-78
2023/03/09 08:12:13;;;;;;;4.00;0.73;;;22.80;99.90;;;;;;5064688;28;20294;-78
2023/03/09 08:14:44;;;;;;;3.83;0.70;;;22.80;99.90;;;;;;5065488;28;20205;-78
2023/03/09 08:17:17;;;;;;;4.15;0.80;;;22.80;99.90;;;;;;5065454;28;20201;-78
2023/03/09 08:19:53;;;;;;;2.40;0.82;;;22.70;99.90;;;;;;5056402;28;20656;-78
2023/03/09 08:22:24;;;;;;;2.17;0.80;;;22.60;99.90;;;;;;5060616;28;20223;-78
2023/03/09 08:24:55;;;;;;;2.20;0.65;;;22.60;99.90;;;;;;5076801;28;20584;-78
2023/03/09 08:27:26;;;;;;;2.42;0.70;;;22.60;99.90;;;;;;5068650;28;20695;-78
2023/03/09 08:29:58;;;;;;;5.25;1.15;;;22.50;99.90;;;;;;5066681;28;20696;-78
2023/03/09 08:32:30;;;;;;;1.55;0.60;;;22.50;99.90;;;;;;5072347;28;20212;-78
2023/03/09 08:35:09;;;;;;;2.92;0.70;;;22.50;99.90;;;;;;5079635;28;20199;-78
2023/03/09 08:37:40;;;;;;;3.70;0.80;;;22.40;99.90;;;;;;5073926;28;20265;-79
2023/03/09 08:40:13;;;;;;;4.47;0.88;;;22.40;99.90;;;;;;5067901;28;20199;-80
2023/03/09 08:42:46;;;;;;;2.85;0.68;;;22.40;99.90;;;;;;5067506;28;20261;-79
2023/03/09 08:45:18;;;;;;;2.70;0.85;;;22.30;99.90;;;;;;5065823;28;20280;-79
2023/03/09 08:47:49;;;;;;;4.90;0.93;;;22.30;99.90;;;;;;5065117;28;20671;-79
2023/03/09 08:50:22;;;;;;;3.47;0.93;;;22.30;99.90;;;;;;5065632;28;20254;-79
2023/03/09 08:52:54;;;;;;;2.30;1.00;;;22.30;99.90;;;;;;5070332;28;20218;-79
2023/03/09 08:55:26;;;;;;;4.03;0.63;;;22.20;99.90;;;;;;5065182;28;20200;-79
2023/03/09 08:57:59;;;;;;;2.95;0.90;;;22.20;99.90;;;;;;5066503;28;20228;-79
2023/03/09 09:00:31;;;;;;;3.88;0.85;;;22.20;99.90;;;;;;5064126;28;20560;-79
2023/03/09 09:03:02;;;;;;;2.10;0.70;;;22.20;99.90;;;;;;5067164;28;20193;-79
2023/03/09 09:05:36;;;;;;;2.70;0.80;;;22.10;99.90;;;;;;5075918;28;20208;-78
2023/03/09 09:08:09;;;;;;;3.22;0.82;;;22.10;99.90;;;;;;5060569;28;20201;-78
2023/03/09 09:10:45;;;;;;;4.35;0.75;;;22.10;99.90;;;;;;5070354;28;20680;-78
2023/03/09 09:13:16;;;;;;;2.75;0.70;;;22.10;99.90;;;;;;5065593;28;20296;-78
2023/03/09 09:15:47;;;;;;;3.75;0.85;;;22.10;99.90;;;;;;5067542;28;20877;-78
2023/03/09 09:18:18;;;;;;;1.42;0.73;;;22.00;99.90;;;;;;5064923;28;20216;-78
2023/03/09 09:20:51;;;;;;;1.80;0.52;;;22.00;99.90;;;;;;5067641;28;20228;-78
2023/03/09 09:23:23;;;;;;;4.75;0.70;;;22.00;99.90;;;;;;5073146;28;20660;-78
2023/03/09 09:26:00;;;;;;;2.15;0.65;;;22.00;99.90;;;;;;5069269;28;20284;-78
2023/03/09 09:28:31;;;;;;;2.88;0.82;;;21.90;99.90;;;;;;5066908;28;20219;-78
2023/03/09 09:31:05;;;;;;;2.30;0.80;;;21.90;99.90;;;;;;5062768;28;20304;-78
2023/03/09 09:33:38;;;;;;;3.38;0.80;;;21.90;99.90;;;;;;5066808;28;20220;-78
2023/03/09 09:36:17;;;;;;;2.15;1.00;;;21.90;99.90;;;;;;5075958;28;20189;-78
2023/03/09 09:38:50;;;;;;;3.53;1.10;;;21.90;99.90;;;;;;5070871;28;20234;-78
2023/03/09 09:41:26;;;;;;;2.38;1.20;;;21.80;99.90;;;;;;5071202;28;20197;-78
2023/03/09 09:44:03;;;;;;;2.85;1.38;;;21.80;99.90;;;;;;5076017;28;20204;-78
2023/03/09 09:46:39;;;;;;;3.40;1.38;;;21.80;99.90;;;;;;5081193;28;20228;-78
2023/03/09 09:49:17;;;;;;;2.75;1.38;;;21.80;99.90;;;;;;5067648;28;20200;-78
2023/03/09 09:52:21;;;;;;;2.78;1.30;;;21.80;99.90;;;;;;5072529;28;20219;-78
2023/03/09 09:54:59;;;;;;;2.75;1.20;;;21.80;99.90;;;;;;5066872;28;20202;-78
2023/03/09 09:57:41;;;;;;;2.47;1.13;;;21.70;99.90;;;;;;5072107;28;20224;-78
2023/03/09 10:00:19;;;;;;;1.08;0.90;;;21.70;99.90;;;;;;5061765;28;20734;-78
2023/03/09 10:03:07;;;;;;;3.05;1.00;;;21.70;99.90;;;;;;5069936;28;20647;-78
2023/03/09 10:05:45;;;;;;;3.10;1.27;;;21.70;99.90;;;;;;5066403;28;20676;-78
2023/03/09 10:08:39;;;;;;;4.35;1.30;;;21.70;99.90;;;;;;5076947;28;20205;-78
2023/03/09 10:11:19;;;;;;;2.35;1.02;;;21.70;99.90;;;;;;5072273;28;20193;-78
2023/03/09 10:13:53;;;;;;;4.20;1.20;;;21.70;99.90;;;;;;5081927;28;20226;-78
2023/03/09 10:16:28;;;;;;;2.92;1.20;;;21.60;99.90;;;;;;5064649;28;20200;-78
2023/03/09 10:19:02;;;;;;;2.90;1.05;;;21.60;99.90;;;;;;5067707;28;20192;-78
2023/03/09 10:21:43;;;;;;;4.93;1.35;;;21.60;99.90;;;;;;5078575;28;20188;-78
2023/03/09 10:24:26;;;;;;;3.65;1.20;;;21.50;99.90;;;;;;5068084;28;20201;-78
2023/03/09 10:27:02;;;;;;;6.35;1.55;;;21.50;99.90;;;;;;5080555;28;20204;-78
2023/03/09 10:29:44;;;;;;;4.43;1.30;;;21.50;99.90;;;;;;5075600;28;20232;-78
2023/03/09 10:32:22;;;;;;;2.42;1.20;;;21.50;99.90;;;;;;5075840;28;20702;-78
2023/03/09 10:35:03;;;;;;;4.53;1.20;;;21.50;99.90;;;;;;5077131;28;20196;-78
2023/03/09 10:37:37;;;;;;;3.28;1.33;;;21.40;99.90;;;;;;5075012;28;20207;-78
2023/03/09 10:40:21;;;;;;;3.25;1.35;;;21.40;99.90;;;;;;5074709;28;20201;-78
2023/03/09 10:42:53;;;;;;;2.40;1.20;;;21.40;99.90;;;;;;5068539;28;20196;-78
2023/03/09 10:45:28;;;;;;;2.25;1.13;;;21.40;99.90;;;;;;5074836;28;20201;-78
2023/03/09 10:48:05;;;;;;;3.00;1.05;;;21.30;99.90;;;;;;5064067;28;20205;-78
2023/03/09 10:50:37;;;;;;;3.05;1.00;;;21.30;99.90;;;;;;5089349;28;20203;-78
2023/03/09 10:53:38;;;;;;;5.38;1.20;;;21.30;99.90;;;;;;5063902;28;20325;-77
2023/03/09 10:56:18;;;;;;;3.63;1.20;;;21.30;99.90;;;;;;5076387;28;20197;-78
2023/03/09 10:58:51;;;;;;;2.10;1.17;;;21.30;99.90;;;;;;5077205;28;20230;-78
2023/03/09 11:01:26;;;;;;;2.22;1.02;;;21.20;99.90;;;;;;5080259;28;20189;-78
2023/03/09 11:04:00;;;;;;;3.42;1.25;;;21.20;99.90;;;;;;5071764;28;20236;-78
2023/03/09 11:06:38;;;;;;;4.13;1.13;;;21.20;99.90;;;;;;5090331;28;20193;-78
2023/03/09 11:09:15;;;;;;;2.80;1.20;;;21.20;99.90;;;;;;5078797;28;20200;-78
2023/03/09 11:11:49;;;;;;;4.40;1.05;;;21.10;99.90;;;;;;5080567;28;20192;-78
2023/03/09 11:14:30;;;;;;;3.85;1.30;;;21.10;99.90;;;;;;5073971;28;20204;-78
2023/03/09 11:17:02;;;;;;;4.05;1.42;;;21.10;99.90;;;;;;5070507;28;20192;-77
2023/03/09 11:19:33;;;;;;;3.00;1.25;;;21.10;99.90;;;;;;5074768;28;20199;-78
2023/03/09 11:22:13;;;;;;;5.82;1.17;;;21.10;99.90;;;;;;5067258;28;20558;-78
2023/03/09 11:24:48;;;;;;;4.03;1.38;;;21.10;99.90;;;;;;5081517;28;20581;-78
2023/03/09 11:27:28;;;;;;;3.55;1.25;;;21.10;99.90;;;;;;5070834;28;20197;-78
2023/03/09 11:30:04;;;;;;;4.22;1.40;;;21.10;99.90;;;;;;5076745;28;20253;-78
2023/03/09 11:32:37;;;;;;;4.63;1.45;;;21.10;99.90;;;;;;5071052;28;20209;-78
2023/03/09 11:35:10;;;;;;;4.88;1.38;;;21.10;99.90;;;;;;5086196;28;20577;-79
2023/03/09 11:37:46;;;;;;;4.22;1.30;;;21.10;99.90;;;;;;5081748;28;20197;-79
2023/03/09 11:40:22;;;;;;;4.05;1.20;;;21.00;99.90;;;;;;5072562;28;20257;-79
2023/03/09 11:43:00;;;;;;;2.33;1.20;;;21.00;99.90;;;;;;5073561;28;20222;-78
2023/03/09 11:45:33;;;;;;;2.53;1.27;;;21.00;99.90;;;;;;5063133;28;20197;-78
2023/03/09 11:48:07;;;;;;;3.65;1.23;;;21.00;99.90;;;;;;5074112;28;20193;-78
2023/03/09 11:50:42;;;;;;;2.08;1.25;;;21.00;99.90;;;;;;5071602;28;20197;-78
2023/03/09 11:53:21;;;;;;;3.22;1.30;;;21.00;99.90;;;;;;5074065;28;20243;-78
2023/03/09 11:55:57;;;;;;;2.42;1.27;;;21.00;99.90;;;;;;5069730;28;20258;-78
2023/03/09 11:58:36;;;;;;;5.20;1.65;;;21.00;99.90;;;;;;5074218;28;20221;-78
2023/03/09 12:01:18;;;;;;;4.53;1.50;;;20.90;99.90;;;;;;5070955;28;20723;-79
2023/03/09 12:03:58;;;;;;;5.30;1.40;;;20.90;99.90;;;;;;5053943;28;20194;-77
2023/03/09 12:06:45;;;;;;;3.75;1.30;;;20.90;99.90;;;;;;5056613;28;20200;-78
2023/03/09 12:09:26;;;;;;;3.40;1.23;;;20.90;99.90;;;;;;5073319;28;20200;-78
2023/03/09 12:11:59;;;;;;;4.55;1.45;;;20.90;99.90;;;;;;5073929;28;20648;-78
2023/03/09 12:14:37;;;;;;;3.40;1.33;;;20.90;99.90;;;;;;5060483;28;20204;-78
2023/03/09 12:17:17;;;;;;;2.88;1.40;;;20.90;99.90;;;;;;5054097;28;20552;-77
2023/03/09 12:19:51;;;;;;;4.50;1.23;;;20.80;99.90;;;;;;5067799;28;20205;-78
2023/03/09 12:22:28;;;;;;;3.03;1.30;;;20.80;99.90;;;;;;5074007;28;20193;-77
2023/03/09 12:25:00;;;;;;;4.47;1.52;;;20.80;99.90;;;;;;5061518;28;20221;-78
2023/03/09 12:27:33;;;;;;;4.72;1.50;;;20.70;99.90;;;;;;5054156;28;20193;-78
2023/03/09 12:30:23;;;;;;;2.38;1.13;;;20.70;99.90;;;;;;5053515;28;20225;-78
2023/03/09 12:32:56;;;;;;;3.78;1.55;;;20.70;99.90;;;;;;5053516;28;20221;-78
2023/03/09 12:36:01;;;;;;;4.82;1.17;;;20.70;99.90;;;;;;5053830;28;20252;-78
2023/03/09 12:38:32;;;;;;;2.53;1.40;;;20.60;99.90;;;;;;5073067;28;20184;-77
2023/03/09 12:41:03;;;;;;;3.60;1.38;;;20.60;99.90;;;;;;5071760;28;20204;-78
2023/03/09 12:43:51;;;;;;;4.43;1.48;;;20.60;99.90;;;;;;5053264;28;20208;-78
2023/03/09 12:47:03;;;;;;;2.92;1.33;;;20.60;99.90;;;;;;5053345;28;20212;-78
2023/03/09 12:49:43;;;;;;;3.85;1.33;;;20.60;99.90;;;;;;5054482;28;20212;-78
2023/03/09 12:52:53;;;;;;;5.13;1.33;;;20.60;99.90;;;;;;5052566;28;20197;-78
2023/03/09 12:55:27;;;;;;;2.35;1.17;;;20.50;99.90;;;;;;5053977;28;20259;-78
2023/03/09 12:58:40;;;;;;;2.10;1.10;;;20.50;99.90;;;;;;5061946;28;20576;-78
2023/03/09 13:01:13;;;;;;;6.35;1.48;;;20.40;99.90;;;;;;5053788;28;20201;-79
2023/03/09 13:03:49;;;;;;;3.78;1.40;;;20.40;99.90;;;;;;5065358;28;20189;-78
2023/03/09 13:06:31;;;;;;;5.43;1.52;;;20.30;99.90;;;;;;5054275;28;20193;-78
2023/03/09 13:09:04;;;;;;;3.40;1.60;;;20.30;99.90;;;;;;5052918;28;20194;-78
2023/03/09 13:11:41;;;;;;;3.75;1.40;;;20.30;99.90;;;;;;5069000;28;20636;-78
2023/03/09 13:14:18;;;;;;;3.22;1.52;;;20.20;99.90;;;;;;5089086;28;20215;-78
2023/03/09 13:16:59;;;;;;;4.55;1.60;;;20.20;99.90;;;;;;5071747;28;20288;-78
2023/03/09 13:19:57;;;;;;;5.00;1.58;;;20.20;99.90;;;;;;5077340;28;20197;-78
2023/03/09 13:22:40;;;;;;;5.45;2.00;;;20.20;99.90;;;;;;5069696;28;20200;-78
2023/03/09 13:25:36;;;;;;;3.42;1.60;;;20.20;99.90;;;;;;5076365;28;20184;-78